Flight Track Log - Related Links

Times and Time Zones

All times are in EDT time to prevent confusion due to time zone crossing. See the GLA63P flight status page for this flight to view local times or setup timezone preferences in your user account.

Time Position Orientation Groundspeed Altitude Reporting Facility
EDT Latitude Longitude Course Direction KTS MPH feet Rate Location/Type
Thu 08:27:33 AM 34.6825 -112.4411 289° West 160 184 7,800  Level Los Angeles Center
Thu 08:28:35 AM 34.6956 -112.4869 289° West 170 196 10,200 2,213 Climbing Albuquerque Center
Thu 08:29:35 AM 34.7353 -112.4750 14° North 152 175 12,300 1,934 Climbing Albuquerque Center
Thu 08:30:36 AM 34.7756 -112.4733 North 147 169 14,100 1,820 Climbing Albuquerque Center
Thu 08:31:37 AM 34.8181 -112.4769 356° North 152 175 16,000 1,686 Climbing Albuquerque Center
Thu 08:32:37 AM 34.8606 -112.4683 North 152 175 17,500 1,289 Climbing Albuquerque Center
Thu 08:33:38 AM 34.9067 -112.4647 North 162 186 18,600 1,091 Climbing Albuquerque Center
Thu 08:34:38 AM 34.9528 -112.4569 North 166 191 19,700 1,190 Climbing Albuquerque Center
Thu 08:35:39 AM 35.0039 -112.4483 North 179 206 21,000 1,190 Climbing Albuquerque Center
Thu 08:36:39 AM 35.0547 -112.4369 10° North 185 213 22,100 1,041 Climbing Albuquerque Center
Thu 08:37:40 AM 35.1069 -112.4289 North 189 217 23,100 893 Climbing Albuquerque Center
Thu 08:38:40 AM 35.1603 -112.4222 North 192 221 23,900 446 Climbing Albuquerque Center
Thu 08:39:41 AM 35.2297 -112.4292 355° North 210 242 24,000 50 Climbing Albuquerque Center
Thu 08:40:41 AM 35.2897 -112.4478 346° North 222 255 24,000  Level Albuquerque Center
Thu 08:41:42 AM 35.3536 -112.4553 355° North 231 266 24,000  Level Albuquerque Center
Thu 08:42:38 AM 35.4058 -112.4408 13° North 240 276 24,000  Level Los Angeles Center
Thu 08:43:38 AM 35.4731 -112.4247 11° North 246 283 24,000 50 Level Los Angeles Center
Thu 08:44:38 AM 35.5392 -112.4100 10° North 244 281 24,100  Climbing Los Angeles Center
Thu 08:45:39 AM 35.6200 -112.3908 11° North 247 284 24,000 -50 Descending Los Angeles Center
Thu 08:46:39 AM 35.6864 -112.3647 18° North 250 288 24,000  Level Los Angeles Center
Thu 08:47:39 AM 35.7347 -112.2919 51° Northeast 274 315 24,000 50 Level Los Angeles Center
Thu 08:48:40 AM 35.7892 -112.2369 39° Northeast 259 298 24,100 50 Climbing Los Angeles Center
Thu 08:49:40 AM 35.8531 -112.2050 22° Northeast 250 288 24,100  Level Los Angeles Center
Thu 08:50:40 AM 35.9181 -112.1844 14° North 243 280 24,100 -50 Level Los Angeles Center
Thu 08:51:41 AM 35.9786 -112.1414 30° Northeast 251 289 24,000 -50 Descending Los Angeles Center
Thu 08:52:41 AM 36.0339 -112.0886 38° Northeast 251 289 24,000  Level Los Angeles Center
Thu 08:53:42 AM 36.0961 -112.0533 25° Northeast 246 283 24,000  Level Los Angeles Center
Thu 08:54:42 AM 36.1494 -111.9906 44° Northeast 260 299 24,000  Level Los Angeles Center
Thu 08:55:42 AM 36.2008 -111.9292 44° Northeast 262 302 24,000  Level Los Angeles Center
Thu 08:56:43 AM 36.2578 -111.8761 37° Northeast 258 297 24,000  Level Los Angeles Center
Thu 08:57:07 AM 36.2808 -111.8592 31° Northeast 254 292 24,000  Level Denver Center
Thu 08:58:08 AM 36.3431 -111.8300 21° North 246 283 24,000  Level Denver Center
Thu 08:59:09 AM 36.4044 -111.8097 15° North 232 267 24,000  Level Denver Center
Thu 09:00:10 AM 36.4614 -111.7575 36° Northeast 253 291 24,000  Level Denver Center
Thu 09:01:11 AM 36.5325 -111.7019 32° Northeast 253 291 24,000  Level Denver Center
Thu 09:02:12 AM 36.5928 -111.6681 24° Northeast 245 282 24,000  Level Denver Center
Thu 09:03:13 AM 36.6542 -111.6347 24° Northeast 242 278 24,000  Level Denver Center
Thu 09:04:14 AM 36.7086 -111.5833 37° Northeast 245 282 24,000  Level Denver Center
Thu 09:05:15 AM 36.7631 -111.5297 38° Northeast 249 287 24,000  Level Denver Center
Thu 09:06:17 AM 36.8242 -111.4956 24° Northeast 245 282 24,000  Level Denver Center
Thu 09:07:18 AM 36.8892 -111.4736 15° North 245 282 24,000  Level Denver Center
Thu 09:08:19 AM 36.9467 -111.4289 32° Northeast 247 284 24,000  Level Denver Center
Thu 09:09:20 AM 37.0053 -111.3842 31° Northeast 248 285 24,000 -49 Level Denver Center
Thu 09:10:21 AM 37.0650 -111.3586 19° North 233 268 23,900  Descending Denver Center
Thu 09:11:22 AM 37.1258 -111.3322 19° North 230 265 24,000 98 Climbing Denver Center
Thu 09:12:23 AM 37.1997 -111.3036 17° North 233 268 24,100 49 Climbing Denver Center
Thu 09:13:24 AM 37.2586 -111.2564 33° Northeast 251 289 24,100 -148 Level Denver Center
Thu 09:14:25 AM 37.3164 -111.2058 35° Northeast 254 292 23,800 -393 Descending Denver Center
Thu 09:15:26 AM 37.3806 -111.1664 26° Northeast 256 295 23,300 -344 Descending Denver Center
Thu 09:16:27 AM 37.4450 -111.1422 17° North 241 277 23,100 -134 Descending Denver Center
Thu 09:17:40 AM 37.5203 -111.1311 North 228 262 23,000  Descending Denver Center
Thu 09:18:41 AM 37.5800 -111.1108 15° North 226 260 23,100 49 Climbing Denver Center
Thu 09:19:42 AM 37.6392 -111.0814 22° Northeast 229 264 23,100 -49 Level Denver Center
Thu 09:20:43 AM 37.6983 -111.0547 20° North 227 261 23,000 -49 Descending Denver Center
Thu 09:21:44 AM 37.7564 -110.9881 42° Northeast 245 282 23,000  Level Denver Center
Thu 09:22:45 AM 37.7958 -110.9186 54° Northeast 245 282 23,000 49 Level Denver Center
Thu 09:23:46 AM 37.8381 -110.8500 52° Northeast 247 284 23,100  Climbing Denver Center
Thu 09:24:47 AM 37.8786 -110.7828 53° Northeast 242 278 23,000 -49 Descending Denver Center
Thu 09:25:48 AM 37.9228 -110.7153 50° Northeast 246 283 23,000 -49 Level Denver Center
Thu 09:26:49 AM 37.9681 -110.6539 47° Northeast 239 275 22,900 -738 Descending Denver Center
Thu 09:27:50 AM 38.0167 -110.5836 49° Northeast 247 284 21,500 -1,623 Descending Denver Center
Thu 09:28:51 AM 38.0578 -110.5189 51° Northeast 247 284 19,600 -1,820 Descending Denver Center
Thu 09:29:52 AM 38.1008 -110.4617 46° Northeast 239 275 17,800 -1,525 Descending Denver Center
Thu 09:30:53 AM 38.1508 -110.3986 45° Northeast 228 262 16,500 -934 Descending Denver Center
Thu 09:31:54 AM 38.1872 -110.3569 42° Northeast 223 257 15,900 -738 Descending Denver Center
Thu 09:32:55 AM 38.2497 -110.2975 37° Northeast 219 252 15,000 -836 Descending Denver Center
Thu 09:33:56 AM 38.2986 -110.2558 34° Northeast 220 253 14,200 -787 Descending Denver Center

Login

Don't have an account? Register now (free) for customized features, flight alerts, and more!